createdAt,value
2018-03-26T00:01:57.169Z,77.71
2018-03-26T00:04:25.429Z,76.44
2018-03-26T00:06:54.443Z,76.25
2018-03-26T00:09:22.706Z,76.04
2018-03-26T00:11:51.712Z,76.00
2018-03-26T00:14:20.727Z,75.87
2018-03-26T00:16:48.981Z,76.50
2018-03-26T00:19:18.009Z,75.22
2018-03-26T00:21:46.262Z,74.88
2018-03-26T00:24:15.288Z,74.59
2018-03-26T00:26:43.541Z,74.43
2018-03-26T00:29:12.556Z,74.80
2018-03-26T00:31:40.821Z,76.48
2018-03-26T00:34:09.969Z,77.00
2018-03-26T00:36:38.218Z,74.54
2018-03-26T00:39:06.539Z,73.90
2018-03-26T00:41:34.784Z,73.61
2018-03-26T00:44:03.054Z,73.87
2018-03-26T00:46:31.295Z,74.94
2018-03-26T00:48:59.535Z,74.71
2018-03-26T00:51:27.799Z,76.01
2018-03-26T00:53:56.040Z,74.69
2018-03-26T00:56:24.449Z,74.46
2018-03-26T00:58:53.456Z,75.37
2018-03-26T01:01:21.704Z,75.53
2018-03-26T01:03:49.970Z,76.42
2018-03-26T01:06:18.212Z,76.83
2018-03-26T01:08:46.470Z,76.95
2018-03-26T01:11:14.734Z,77.02
2018-03-26T01:13:43.758Z,77.02
2018-03-26T01:16:12.000Z,77.03
2018-03-26T01:18:40.260Z,77.31
2018-03-26T01:21:08.515Z,77.63
2018-03-26T01:23:36.748Z,77.66
2018-03-26T01:26:05.771Z,78.03
2018-03-26T01:28:34.019Z,78.00
2018-03-26T01:31:02.275Z,78.07
2018-03-26T01:33:30.540Z,78.51
2018-03-26T01:35:58.782Z,78.68
2018-03-26T01:38:27.809Z,77.29
2018-03-26T01:40:56.074Z,77.63
2018-03-26T01:43:24.324Z,79.45
2018-03-26T01:45:52.565Z,80.05
2018-03-26T01:48:20.840Z,77.54
2018-03-26T01:50:49.102Z,77.35
2018-03-26T01:53:17.364Z,76.92
2018-03-26T01:55:45.619Z,76.90
2018-03-26T01:58:13.879Z,79.14
2018-03-26T02:00:42.122Z,80.32
2018-03-26T02:03:10.405Z,79.05
2018-03-26T02:05:38.659Z,78.00
2018-03-26T02:08:07.672Z,79.42
2018-03-26T02:10:35.930Z,80.53
2018-03-26T02:13:05.013Z,81.32
2018-03-26T02:15:33.203Z,81.91
2018-03-26T02:18:02.232Z,82.58
2018-03-26T02:20:30.490Z,82.53
2018-03-26T02:22:59.496Z,82.25
2018-03-26T02:25:28.520Z,82.29
2018-03-26T02:27:56.769Z,82.53
2018-03-26T02:30:25.796Z,80.92
2018-03-26T02:32:54.049Z,80.14
2018-03-26T02:35:23.061Z,80.34
2018-03-26T02:37:51.308Z,80.17
2018-03-26T02:40:19.560Z,80.23
2018-03-26T02:42:47.804Z,81.90
2018-03-26T02:45:16.096Z,80.71
2018-03-26T02:47:44.341Z,79.87
2018-03-26T02:50:13.361Z,79.35
2018-03-26T02:52:41.636Z,79.65
2018-03-26T02:55:10.653Z,79.24
2018-03-26T02:57:38.896Z,78.67
2018-03-26T03:00:09.162Z,79.69
2018-03-26T03:02:37.413Z,80.79
2018-03-26T03:05:06.425Z,81.20
2018-03-26T03:07:34.694Z,81.50
2018-03-26T03:10:03.698Z,80.72
2018-03-26T03:12:31.967Z,81.46
2018-03-26T03:15:00.239Z,81.55
2018-03-26T03:17:29.248Z,81.91
2018-03-26T03:19:57.524Z,81.68
2018-03-26T03:22:25.791Z,82.12
2018-03-26T03:24:54.812Z,81.61
2018-03-26T03:27:23.060Z,81.76
2018-03-26T03:29:51.331Z,82.22
2018-03-26T03:32:19.575Z,79.94
2018-03-26T03:34:47.819Z,78.97
2018-03-26T03:37:16.843Z,79.10
2018-03-26T03:39:45.117Z,80.18
2018-03-26T03:42:14.275Z,79.07
2018-03-26T03:44:42.532Z,78.25
2018-03-26T03:47:10.807Z,79.20
2018-03-26T03:49:39.048Z,79.55
2018-03-26T03:52:07.317Z,77.77
2018-03-26T03:54:36.324Z,78.02
2018-03-26T03:57:04.580Z,78.25
2018-03-26T03:59:32.839Z,78.46
2018-03-26T04:02:01.084Z,79.37
2018-03-26T04:04:29.335Z,79.85
2018-03-26T04:06:58.360Z,77.98
2018-03-26T04:09:26.633Z,79.71
2018-03-26T04:11:54.875Z,80.25
2018-03-26T04:14:23.128Z,81.39
2018-03-26T04:16:51.396Z,82.18
2018-03-26T04:19:19.649Z,82.58
2018-03-26T04:21:47.908Z,82.08
2018-03-26T04:24:16.929Z,79.83
2018-03-26T04:26:45.201Z,80.30
2018-03-26T04:29:14.209Z,80.09
2018-03-26T04:31:42.448Z,79.41
2018-03-26T04:34:10.743Z,78.75
2018-03-26T04:36:38.948Z,79.81
2018-03-26T04:39:07.188Z,79.06
2018-03-26T04:41:35.453Z,78.98
2018-03-26T04:44:03.701Z,79.76
2018-03-26T04:46:31.942Z,78.41
2018-03-26T04:49:00.967Z,79.74
2018-03-26T04:51:29.216Z,81.03
2018-03-26T04:53:58.232Z,80.93
2018-03-26T04:56:27.248Z,80.79
2018-03-26T04:58:55.503Z,80.43
2018-03-26T05:01:24.615Z,80.40
2018-03-26T05:03:53.633Z,80.33
2018-03-26T05:06:21.884Z,80.31
2018-03-26T05:08:50.916Z,78.59
2018-03-26T05:11:19.165Z,77.57
2018-03-26T05:13:48.174Z,76.72
2018-03-26T05:16:16.433Z,76.09
2018-03-26T05:18:45.440Z,77.01
2018-03-26T05:21:13.687Z,76.13
2018-03-26T05:23:42.090Z,76.72
2018-03-26T05:26:11.097Z,78.14
2018-03-26T05:28:40.103Z,77.89
2018-03-26T05:31:08.426Z,78.16
2018-03-26T05:33:37.376Z,77.86
2018-03-26T05:36:05.619Z,78.07
2018-03-26T05:38:33.888Z,78.22
2018-03-26T05:41:02.137Z,75.89
2018-03-26T05:43:30.372Z,76.02
2018-03-26T05:45:58.623Z,76.12
2018-03-26T05:48:26.868Z,75.93
2018-03-26T05:50:55.121Z,75.38
2018-03-26T05:53:24.139Z,75.24
2018-03-26T05:55:52.392Z,75.12
2018-03-26T05:58:21.421Z,74.43
2018-03-26T06:00:49.676Z,74.10
2018-03-26T06:03:18.689Z,74.18
2018-03-26T06:05:47.704Z,74.15
2018-03-26T06:08:15.949Z,74.17
2018-03-26T06:10:44.960Z,74.08
2018-03-26T06:13:13.746Z,76.01
2018-03-26T06:15:42.760Z,74.63
2018-03-26T06:18:11.768Z,74.77
2018-03-26T06:20:40.021Z,74.23
2018-03-26T06:23:09.036Z,73.30
2018-03-26T06:25:37.304Z,74.20
2018-03-26T06:28:06.336Z,72.49
2018-03-26T06:30:34.616Z,72.64
2018-03-26T06:33:02.840Z,73.86
2018-03-26T06:35:31.110Z,74.37
2018-03-26T06:41:01.252Z,73.23
2018-03-26T06:43:30.389Z,73.36
2018-03-26T06:45:58.644Z,72.46
2018-03-26T06:48:27.654Z,73.01
2018-03-26T06:50:55.922Z,72.71
2018-03-26T06:53:24.929Z,71.87
2018-03-26T06:55:53.937Z,71.86
2018-03-26T06:58:22.204Z,70.42
2018-03-26T07:00:51.217Z,70.85
2018-03-26T07:03:19.459Z,70.42
2018-03-26T07:05:49.514Z,69.81
2018-03-26T07:08:17.759Z,68.39
2018-03-26T07:10:46.781Z,69.44
2018-03-26T07:13:15.485Z,69.83
2018-03-26T07:15:43.760Z,70.67
2018-03-26T07:18:12.000Z,68.39
2018-03-26T07:20:40.267Z,69.21
2018-03-26T07:23:08.524Z,67.99
2018-03-26T07:25:36.764Z,67.95
2018-03-26T07:28:05.796Z,67.63
2018-03-26T07:30:34.040Z,68.33
2018-03-26T07:33:03.052Z,69.09
2018-03-26T07:35:31.317Z,69.57
2018-03-26T07:38:00.330Z,70.57
2018-03-26T07:40:29.348Z,69.31
2018-03-26T07:42:57.624Z,68.52
2018-03-26T07:45:25.873Z,69.55
2018-03-26T07:47:54.884Z,68.11
2018-03-26T07:50:23.899Z,66.09
2018-03-26T07:52:52.159Z,65.81
2018-03-26T07:55:20.405Z,66.07
2018-03-26T07:57:49.664Z,65.87
2018-03-26T08:00:17.928Z,64.16
2018-03-26T08:02:46.176Z,63.17
2018-03-26T08:05:14.415Z,64.17
2018-03-26T08:07:42.671Z,65.19
2018-03-26T08:10:10.940Z,65.62
2018-03-26T08:12:39.947Z,65.35
2018-03-26T08:15:08.208Z,65.88
2018-03-26T08:17:37.268Z,66.39
2018-03-26T08:20:05.512Z,66.02
2018-03-26T08:22:33.779Z,66.20
2018-03-26T08:25:02.807Z,65.71
2018-03-26T08:27:31.060Z,66.54
2018-03-26T08:30:01.312Z,64.93
2018-03-26T08:32:29.606Z,63.88
2018-03-26T08:34:57.868Z,63.99
2018-03-26T08:37:26.125Z,63.20
2018-03-26T08:39:55.848Z,63.34
2018-03-26T08:42:24.134Z,63.03
2018-03-26T08:44:53.120Z,63.99
2018-03-26T08:47:21.371Z,63.72
2018-03-26T08:49:49.711Z,63.62
2018-03-26T08:52:17.880Z,62.75
2018-03-26T08:54:46.139Z,62.53
2018-03-26T08:57:15.156Z,61.75
2018-03-26T08:59:43.429Z,60.75
2018-03-26T09:02:11.667Z,60.66
2018-03-26T09:04:39.912Z,59.33
2018-03-26T09:07:08.168Z,57.86
2018-03-26T09:09:36.426Z,56.44
2018-03-26T09:12:06.691Z,57.08
2018-03-26T09:14:34.944Z,56.33
2018-03-26T09:17:03.213Z,53.56
2018-03-26T09:19:32.236Z,53.64
2018-03-26T09:22:00.491Z,52.98
2018-03-26T09:24:29.514Z,53.97
2018-03-26T09:26:57.776Z,54.53
2018-03-26T09:29:26.787Z,54.23
2018-03-26T09:31:55.047Z,53.42
2018-03-26T09:34:24.072Z,52.31
2018-03-26T09:36:52.337Z,51.50
2018-03-26T09:39:20.579Z,52.48
2018-03-26T09:41:48.835Z,52.10
2018-03-26T09:44:17.096Z,50.80
2018-03-26T09:46:45.345Z,51.72
2018-03-26T09:49:14.372Z,52.34
2018-03-26T09:51:42.632Z,51.86
2018-03-26T09:54:11.699Z,50.06
2018-03-26T09:56:39.968Z,49.92
2018-03-26T09:59:08.215Z,50.58
2018-03-26T10:04:34.161Z,49.02
2018-03-26T10:07:02.404Z,49.94
2018-03-26T10:09:30.660Z,50.39
2018-03-26T10:11:58.924Z,50.30
2018-03-26T10:14:27.187Z,50.44
2018-03-26T10:16:55.440Z,50.41
2018-03-26T10:19:23.700Z,50.46
2018-03-26T10:21:52.712Z,51.59
2018-03-26T10:24:20.960Z,50.24
2018-03-26T10:26:49.232Z,50.47
2018-03-26T10:29:17.519Z,51.33
2018-03-26T10:31:45.758Z,50.91
2018-03-26T10:34:14.014Z,50.65
2018-03-26T10:36:42.269Z,50.45
2018-03-26T10:39:10.520Z,49.97
2018-03-26T10:41:38.774Z,49.39
2018-03-26T10:44:07.020Z,49.23
2018-03-26T10:46:36.057Z,50.79
2018-03-26T10:49:04.304Z,50.81
2018-03-26T10:51:33.324Z,47.71
2018-03-26T10:54:01.597Z,46.19
2018-03-26T10:56:29.872Z,42.99
2018-03-26T10:58:58.127Z,40.49
2018-03-26T11:01:26.370Z,41.85
2018-03-26T11:03:54.632Z,44.58
2018-03-26T11:06:22.901Z,45.92
2018-03-26T11:08:51.160Z,45.37
2018-03-26T11:11:20.180Z,45.19
2018-03-26T11:13:48.460Z,47.20
2018-03-26T11:16:16.869Z,48.25
2018-03-26T11:18:45.026Z,47.49
2018-03-26T11:21:13.285Z,47.54
2018-03-26T11:23:41.541Z,48.02
2018-03-26T11:26:09.796Z,48.55
2018-03-26T11:28:38.040Z,49.49
2018-03-26T11:31:06.299Z,48.61
2018-03-26T11:33:34.548Z,49.62
2018-03-26T11:36:03.477Z,50.50
2018-03-26T11:38:32.525Z,51.26
2018-03-26T11:41:00.793Z,52.43
2018-03-26T11:43:29.040Z,53.05
2018-03-26T11:45:57.338Z,53.03
2018-03-26T11:48:25.571Z,52.97
2018-03-26T11:50:53.825Z,53.21
2018-03-26T11:53:22.089Z,52.11
2018-03-26T11:55:50.336Z,50.76
2018-03-26T11:58:18.600Z,50.56
2018-03-26T12:00:47.619Z,50.20
2018-03-26T12:03:15.899Z,50.00
2018-03-26T12:05:44.139Z,51.02
2018-03-26T12:08:12.412Z,50.26
2018-03-26T12:10:40.727Z,50.27
2018-03-26T12:13:09.753Z,49.41
2018-03-26T12:15:38.000Z,49.38
2018-03-26T12:18:07.041Z,48.98
2018-03-26T12:20:52.809Z,48.85
2018-03-26T12:23:38.780Z,49.64
2018-03-26T12:26:07.796Z,49.77
2018-03-26T12:28:53.547Z,48.86
2018-03-26T12:31:22.565Z,51.45
2018-03-26T12:34:08.340Z,52.91
2018-03-26T12:36:36.602Z,52.77
2018-03-26T12:39:05.621Z,52.67
2018-03-26T12:41:33.876Z,53.02
2018-03-26T12:44:02.897Z,53.53
2018-03-26T12:46:41.786Z,53.06
2018-03-26T12:49:10.029Z,53.35
2018-03-26T12:51:55.868Z,54.04
2018-03-26T12:54:24.125Z,53.73
2018-03-26T12:57:10.073Z,53.53
2018-03-26T12:59:38.333Z,53.72
2018-03-26T13:02:20.949Z,54.60
2018-03-26T13:04:50.445Z,54.51
2018-03-26T13:07:18.695Z,53.29
2018-03-26T13:09:47.723Z,53.52
2018-03-26T13:12:15.964Z,52.54
2018-03-26T13:14:44.221Z,52.17
2018-03-26T13:17:12.492Z,51.19
2018-03-26T13:19:40.740Z,51.17
2018-03-26T13:22:08.988Z,51.10
2018-03-26T13:24:37.268Z,50.15
2018-03-26T13:27:05.515Z,48.08
2018-03-26T13:29:33.791Z,46.28
2018-03-26T13:32:02.052Z,42.92
2018-03-26T13:34:30.308Z,45.68
2018-03-26T13:36:58.569Z,43.14
2018-03-26T13:39:27.340Z,43.09
2018-03-26T13:41:55.623Z,42.61
2018-03-26T13:44:23.853Z,43.15
2018-03-26T13:46:52.118Z,46.46
2018-03-26T13:49:21.133Z,44.49
2018-03-26T13:51:49.505Z,46.59
2018-03-26T13:54:18.522Z,46.58
2018-03-26T13:56:46.770Z,49.16
2018-03-26T13:59:15.775Z,52.52
2018-03-26T14:01:44.799Z,56.22
2018-03-26T14:04:13.055Z,56.81
2018-03-26T14:06:42.258Z,59.54
2018-03-26T14:09:28.716Z,60.24
2018-03-26T14:12:14.523Z,61.75
2018-03-26T14:15:01.101Z,63.85
2018-03-26T14:17:46.901Z,64.69
2018-03-26T14:20:15.926Z,65.48
2018-03-26T14:22:45.470Z,66.42
2018-03-26T14:25:13.713Z,66.51
2018-03-26T14:27:41.953Z,66.03
2018-03-26T14:30:10.235Z,66.61
2018-03-26T14:32:38.479Z,66.52
2018-03-26T14:38:29.027Z,66.69
2018-03-26T14:40:58.050Z,65.86
2018-03-26T14:43:26.307Z,66.29
2018-03-26T14:45:55.320Z,65.73
2018-03-26T14:48:23.572Z,64.63
2018-03-26T14:50:52.736Z,65.38
2018-03-26T14:53:20.982Z,65.14
2018-03-26T14:55:49.244Z,65.37
2018-03-26T14:58:18.264Z,66.31
2018-03-26T15:00:46.528Z,65.34
2018-03-26T15:03:14.792Z,66.03
2018-03-26T15:05:43.804Z,65.51
2018-03-26T15:08:12.808Z,66.08
2018-03-26T15:10:41.247Z,65.44
2018-03-26T15:13:10.196Z,65.37
2018-03-26T15:15:38.444Z,64.97
2018-03-26T15:18:07.475Z,65.79
2018-03-26T15:20:35.727Z,64.95
2018-03-26T15:23:04.737Z,65.00
2018-03-26T15:25:33.769Z,64.42
2018-03-26T15:28:02.018Z,63.98
2018-03-26T15:30:31.030Z,63.71
2018-03-26T15:32:59.288Z,62.91
2018-03-26T15:35:28.312Z,63.99
2018-03-26T15:37:56.581Z,64.18
2018-03-26T15:40:24.836Z,62.53
2018-03-26T15:42:53.859Z,61.73
2018-03-26T15:45:22.105Z,62.92
2018-03-26T15:47:50.386Z,61.90
2018-03-26T15:50:18.621Z,61.27
2018-03-26T15:52:46.881Z,61.97
2018-03-26T15:55:15.148Z,63.19
2018-03-26T15:57:44.151Z,61.77
2018-03-26T16:00:12.400Z,61.55
2018-03-26T16:02:45.922Z,62.47
2018-03-26T16:05:14.940Z,61.24
2018-03-26T16:07:43.181Z,61.82
2018-03-26T16:10:11.438Z,61.97
2018-03-26T16:12:39.685Z,62.90
2018-03-26T16:15:07.924Z,62.19
2018-03-26T16:17:36.953Z,62.37
2018-03-26T16:20:05.216Z,62.79
2018-03-26T16:22:34.247Z,62.45
2018-03-26T16:25:02.497Z,62.68
2018-03-26T16:27:32.747Z,63.92
2018-03-26T16:30:01.047Z,65.06
2018-03-26T16:32:29.515Z,64.20
2018-03-26T16:34:57.778Z,65.92
2018-03-26T16:37:26.037Z,66.88
2018-03-26T16:39:55.065Z,67.36
2018-03-26T16:42:27.951Z,67.50
2018-03-26T16:44:57.454Z,68.95
2018-03-26T16:47:25.699Z,73.24
2018-03-26T16:49:53.959Z,74.43
2018-03-26T16:52:22.220Z,74.64
2018-03-26T16:54:50.463Z,76.24
2018-03-26T16:57:18.764Z,75.76
2018-03-26T16:59:47.748Z,73.55
2018-03-26T17:02:16.029Z,74.39
2018-03-26T17:04:44.281Z,76.84
2018-03-26T17:07:12.536Z,77.12
2018-03-26T17:09:40.806Z,77.67
2018-03-26T17:12:09.052Z,77.98
2018-03-26T17:14:37.303Z,77.74
2018-03-26T17:17:05.586Z,78.34
2018-03-26T17:19:34.809Z,78.31
2018-03-26T17:22:03.111Z,77.94
2018-03-26T17:24:31.328Z,76.78
2018-03-26T17:26:59.599Z,76.29
2018-03-26T17:29:27.855Z,75.93
2018-03-26T17:31:56.131Z,75.30
2018-03-26T17:34:24.374Z,76.09
2018-03-26T17:36:54.630Z,76.21
2018-03-26T17:39:22.893Z,75.91
2018-03-26T17:41:51.899Z,76.72
2018-03-26T17:44:20.172Z,78.46
2018-03-26T17:46:49.188Z,80.44
2018-03-26T17:49:17.453Z,78.21
2018-03-26T17:51:45.704Z,78.78
2018-03-26T17:54:13.972Z,79.45
2018-03-26T17:56:42.216Z,79.91
2018-03-26T17:59:10.465Z,79.47
2018-03-26T18:01:39.484Z,80.56
2018-03-26T18:04:07.729Z,80.22
2018-03-26T18:06:36.017Z,81.70
2018-03-26T18:09:04.389Z,81.92
2018-03-26T18:11:32.639Z,82.07
2018-03-26T18:14:00.904Z,81.11
2018-03-26T18:16:29.172Z,79.12
2018-03-26T18:18:59.428Z,78.12
2018-03-26T18:21:27.696Z,78.99
2018-03-26T18:23:55.962Z,77.60
2018-03-26T18:26:24.204Z,75.99
2018-03-26T18:28:53.112Z,77.40
2018-03-26T18:31:22.151Z,79.41
2018-03-26T18:33:50.394Z,80.54
2018-03-26T18:36:19.425Z,81.34
2018-03-26T18:38:47.682Z,81.66
2018-03-26T18:41:15.924Z,83.43
2018-03-26T18:43:44.192Z,81.75
2018-03-26T18:46:12.436Z,82.16
2018-03-26T18:48:40.692Z,82.42
2018-03-26T18:51:08.947Z,82.83
2018-03-26T18:53:37.194Z,83.66
2018-03-26T18:56:05.447Z,83.37
2018-03-26T18:58:33.702Z,83.94
2018-03-26T19:01:02.707Z,84.15
2018-03-26T19:03:30.959Z,83.62
2018-03-26T19:05:59.212Z,82.12
2018-03-26T19:08:27.471Z,82.56
2018-03-26T19:10:55.733Z,82.33
2018-03-26T19:13:24.742Z,84.08
2018-03-26T19:15:53.008Z,83.99
2018-03-26T19:18:21.265Z,81.75
2018-03-26T19:20:49.528Z,82.17
2018-03-26T19:23:17.801Z,82.63
2018-03-26T19:25:46.060Z,81.59
2018-03-26T19:28:14.303Z,82.32
2018-03-26T19:30:43.329Z,82.70
2018-03-26T19:33:11.592Z,84.12
2018-03-26T19:35:39.846Z,85.04
2018-03-26T19:38:08.100Z,83.70
2018-03-26T19:40:37.872Z,84.62
2018-03-26T19:43:06.132Z,85.67
2018-03-26T19:45:35.155Z,83.66
2018-03-26T19:48:03.417Z,84.93
2018-03-26T19:50:32.434Z,82.27
2018-03-26T19:53:00.697Z,81.93
2018-03-26T19:55:29.728Z,83.33
2018-03-26T19:57:57.977Z,83.62
2018-03-26T20:00:26.225Z,82.55
2018-03-26T20:02:54.483Z,83.50
2018-03-26T20:05:22.736Z,82.30
2018-03-26T20:07:50.998Z,83.23
2018-03-26T20:10:19.265Z,82.29
2018-03-26T20:12:49.518Z,82.10
2018-03-26T20:15:17.780Z,81.97
2018-03-26T20:17:46.809Z,82.47
2018-03-26T20:20:15.040Z,81.64
2018-03-26T20:22:44.070Z,82.45
2018-03-26T20:25:12.350Z,82.64
2018-03-26T20:27:40.592Z,83.03
2018-03-26T20:30:08.856Z,83.31
2018-03-26T20:32:37.103Z,82.97
2018-03-26T20:35:05.369Z,83.00
2018-03-26T20:37:33.636Z,83.37
2018-03-26T20:40:02.657Z,83.98
2018-03-26T20:42:30.916Z,84.60
2018-03-26T20:44:59.934Z,84.48
2018-03-26T20:47:28.192Z,85.38
2018-03-26T20:49:57.238Z,85.68
2018-03-26T20:52:25.485Z,84.77
2018-03-26T20:54:54.625Z,85.31
2018-03-26T20:57:22.884Z,84.06
2018-03-26T20:59:51.156Z,84.42
2018-03-26T21:02:19.412Z,85.57
2018-03-26T21:04:47.665Z,84.45
2018-03-26T21:07:15.920Z,83.32
2018-03-26T21:09:44.872Z,84.59
2018-03-26T21:12:13.144Z,84.37
2018-03-26T21:14:42.162Z,85.77
2018-03-26T21:17:10.424Z,86.31
2018-03-26T21:19:39.434Z,86.49
2018-03-26T21:22:07.697Z,86.33
2018-03-26T21:24:36.710Z,86.36
2018-03-26T21:27:06.343Z,84.94
2018-03-26T21:29:34.596Z,83.82
2018-03-26T21:32:02.851Z,83.08
2018-03-26T21:34:31.120Z,83.27
2018-03-26T21:36:59.944Z,84.06
2018-03-26T21:39:28.947Z,83.31
2018-03-26T21:41:57.968Z,83.82
2018-03-26T21:44:26.226Z,83.76
2018-03-26T21:46:55.246Z,83.57
2018-03-26T21:49:23.488Z,83.37
2018-03-26T21:51:52.516Z,84.12
2018-03-26T21:54:20.772Z,84.83
2018-03-26T21:56:49.794Z,84.75
2018-03-26T21:59:18.046Z,85.00
2018-03-26T22:01:46.300Z,84.23
2018-03-26T22:04:14.541Z,84.44
2018-03-26T22:06:42.779Z,84.30
2018-03-26T22:09:12.219Z,84.37
2018-03-26T22:11:40.460Z,84.85
2018-03-26T22:14:08.723Z,84.74
2018-03-26T22:16:36.961Z,84.94
2018-03-26T22:19:05.228Z,85.69
2018-03-26T22:21:34.252Z,85.38
2018-03-26T22:24:02.519Z,84.84
2018-03-26T22:26:30.760Z,85.54
2018-03-26T22:28:59.012Z,85.04
2018-03-26T22:31:27.276Z,85.00
2018-03-26T22:33:55.531Z,85.08
2018-03-26T22:36:23.796Z,84.43
2018-03-26T22:38:52.817Z,84.53
2018-03-26T22:41:21.087Z,84.87
2018-03-26T22:43:50.093Z,85.02
2018-03-26T22:46:18.345Z,82.90
2018-03-26T22:48:47.374Z,84.31
2018-03-26T22:51:15.637Z,84.59
2018-03-26T22:53:44.656Z,84.31
2018-03-26T22:56:12.916Z,85.17
2018-03-26T22:58:41.926Z,86.27
2018-03-26T23:01:11.016Z,86.35
2018-03-26T23:03:39.262Z,86.62
2018-03-26T23:06:07.528Z,86.37
2018-03-26T23:08:35.788Z,87.01
2018-03-26T23:11:04.048Z,87.18
2018-03-26T23:13:32.304Z,86.75
2018-03-26T23:16:01.322Z,85.56
2018-03-26T23:18:29.581Z,85.04
2018-03-26T23:20:58.606Z,84.14
2018-03-26T23:23:26.860Z,84.06
2018-03-26T23:25:55.877Z,83.71
2018-03-26T23:28:24.406Z,84.56
2018-03-26T23:30:52.653Z,84.85
2018-03-26T23:33:20.892Z,86.06
2018-03-26T23:35:49.913Z,86.35
2018-03-26T23:38:18.165Z,84.32
2018-03-26T23:40:46.425Z,85.35
2018-03-26T23:43:15.725Z,84.79
2018-03-26T23:45:43.985Z,84.42
2018-03-26T23:48:12.231Z,84.16
2018-03-26T23:50:41.257Z,85.15
2018-03-26T23:53:09.514Z,86.00
2018-03-26T23:55:38.532Z,85.86
2018-03-26T23:58:06.784Z,86.19
